Terminal Aerodrome Forecast
Issued by NWS

Home | Current Version | Previous Version | Graphics & Text | Print | Product List | Glossary On
Versions: 1 2 3 4 5 6 7 8 9 10 11 12 13 14 15 16 17 18 19 20 21 22 23 24 25 26 27
000
FTUS43 KLOT 221120
TAFORD
TAF
KORD 221120Z 2212/2318 18014G20KT P6SM SCT060 OVC100
     FM221400 19012G22KT P6SM VCSH SCT020 BKN040
      TEMPO 2216/2220 3SM -SHRA BR SCT008 BKN015
     FM222000 34014G23KT 3SM -RA BR OVC008
     FM230000 33010KT 4SM -RA OVC010
     FM230400 33006KT P6SM VCSH BKN015
     FM230700 30005KT P6SM SCT100 BKN250=

USA.gov is the U.S. government's official web portal to all federal, state and local government web resources and services.